createdAt,value
2023-03-19T00:01:50.987Z,97875.00
2023-03-19T00:04:17.516Z,97875.25
2023-03-19T00:06:44.098Z,97877.25
2023-03-19T00:09:10.798Z,97881.59
2023-03-19T00:11:37.290Z,97883.56
2023-03-19T00:14:03.825Z,97884.47
2023-03-19T00:16:30.438Z,97877.44
2023-03-19T00:18:57.359Z,97872.47
2023-03-19T00:21:25.923Z,97873.38
2023-03-19T00:23:52.700Z,97864.09
2023-03-19T00:26:19.341Z,97864.91
2023-03-19T00:28:46.025Z,97869.28
2023-03-19T00:31:14.588Z,97877.13
2023-03-19T00:33:41.345Z,97875.53
2023-03-19T00:36:08.138Z,97878.41
2023-03-19T00:38:35.872Z,97877.47
2023-03-19T00:41:03.268Z,97871.13
2023-03-19T00:43:29.761Z,97876.78
2023-03-19T00:45:56.274Z,97866.50
2023-03-19T00:48:23.160Z,97868.34
2023-03-19T00:50:49.674Z,97862.59
2023-03-19T00:53:16.375Z,97864.44
2023-03-19T00:55:42.870Z,97860.06
2023-03-19T00:58:10.273Z,97856.06
2023-03-19T01:00:37.500Z,97861.47
2023-03-19T01:03:03.997Z,97869.38
2023-03-19T01:05:30.976Z,97861.34
2023-03-19T01:07:57.632Z,97865.16
2023-03-19T01:10:24.309Z,97864.44
2023-03-19T01:12:50.951Z,97861.84
2023-03-19T01:15:17.677Z,97858.34
2023-03-19T01:17:44.197Z,97873.31
2023-03-19T01:20:14.067Z,97864.69
2023-03-19T01:22:41.520Z,97862.81
2023-03-19T01:25:08.840Z,97859.94
2023-03-19T01:27:35.720Z,97859.03
2023-03-19T01:30:02.308Z,97857.06
2023-03-19T01:32:28.821Z,97857.88
2023-03-19T01:34:55.327Z,97855.25
2023-03-19T01:37:21.805Z,97854.38
2023-03-19T01:39:48.274Z,97858.91
2023-03-19T01:42:14.793Z,97857.16
2023-03-19T01:44:42.014Z,97850.72
2023-03-19T01:47:16.216Z,97849.66
2023-03-19T01:49:42.765Z,97855.53
2023-03-19T01:52:09.954Z,97854.88
2023-03-19T01:54:36.469Z,97850.06
2023-03-19T01:57:05.890Z,97848.25
2023-03-19T01:59:40.811Z,97859.16
2023-03-19T02:02:22.034Z,97852.91
2023-03-19T02:04:49.314Z,97848.31
2023-03-19T02:07:16.232Z,97848.44
2023-03-19T02:09:42.716Z,97851.22
2023-03-19T02:12:09.365Z,97847.56
2023-03-19T02:14:35.936Z,97852.16
2023-03-19T02:17:02.395Z,97854.91
2023-03-19T02:19:48.562Z,97860.09
2023-03-19T02:22:16.693Z,97850.19
2023-03-19T02:24:58.850Z,97859.28
2023-03-19T02:27:25.338Z,97854.69
2023-03-19T02:29:51.915Z,97854.78
2023-03-19T02:32:18.415Z,97849.75
2023-03-19T02:34:45.040Z,97861.22
2023-03-19T02:37:33.280Z,97848.69
2023-03-19T02:40:08.605Z,97849.94
2023-03-19T02:42:35.371Z,97844.19
2023-03-19T02:45:01.862Z,97846.63
2023-03-19T02:47:28.367Z,97855.44
2023-03-19T02:49:55.936Z,97849.69
2023-03-19T02:52:22.462Z,97852.56
2023-03-19T02:54:48.992Z,97845.72
2023-03-19T02:57:15.714Z,97835.94
2023-03-19T02:59:42.186Z,97845.97
2023-03-19T03:02:10.141Z,97838.44
2023-03-19T03:04:39.442Z,97846.72
2023-03-19T03:07:06.169Z,97840.16
2023-03-19T03:09:32.678Z,97844.09
2023-03-19T03:11:59.161Z,97847.97
2023-03-19T03:14:25.675Z,97843.00
2023-03-19T03:16:52.400Z,97845.19
2023-03-19T03:19:19.450Z,97840.53
2023-03-19T03:21:45.930Z,97837.19
2023-03-19T03:24:12.400Z,97845.81
2023-03-19T03:26:39.009Z,97841.63
2023-03-19T03:29:06.134Z,97838.59
2023-03-19T03:31:32.744Z,97835.69
2023-03-19T03:33:59.215Z,97848.56
2023-03-19T03:36:25.698Z,97849.19
2023-03-19T03:38:52.183Z,97847.31
2023-03-19T03:41:18.684Z,97835.72
2023-03-19T03:43:45.304Z,97843.56
2023-03-19T03:46:11.869Z,97842.13
2023-03-19T03:48:38.406Z,97849.91
2023-03-19T03:51:04.956Z,97847.25
2023-03-19T03:53:31.705Z,97849.38
2023-03-19T03:55:58.192Z,97850.03
2023-03-19T03:58:24.871Z,97849.63
2023-03-19T04:00:51.475Z,97855.47
2023-03-19T04:03:18.288Z,97849.56
2023-03-19T04:05:44.910Z,97852.59
2023-03-19T04:08:12.101Z,97856.63
2023-03-19T04:10:42.381Z,97852.59
2023-03-19T04:13:09.327Z,97859.84
2023-03-19T04:15:35.859Z,97859.41
2023-03-19T04:18:02.347Z,97844.84
2023-03-19T04:20:29.077Z,97851.00
2023-03-19T04:22:55.762Z,97852.94
2023-03-19T04:25:22.399Z,97842.78
2023-03-19T04:27:48.869Z,97847.06
2023-03-19T04:30:15.440Z,97861.97
2023-03-19T04:32:41.959Z,97847.66
2023-03-19T04:35:09.007Z,97850.50
2023-03-19T04:37:35.489Z,97849.06
2023-03-19T04:40:01.998Z,97849.00
2023-03-19T04:42:28.528Z,97859.28
2023-03-19T04:44:55.064Z,97861.03
2023-03-19T04:47:21.882Z,97855.03
2023-03-19T04:49:48.836Z,97857.56
2023-03-19T04:52:15.312Z,97851.59
2023-03-19T04:54:41.805Z,97851.53
2023-03-19T04:57:08.326Z,97849.63
2023-03-19T04:59:34.858Z,97848.22
2023-03-19T05:02:01.396Z,97853.41
2023-03-19T05:04:27.966Z,97855.09
2023-03-19T05:06:54.446Z,97857.41
2023-03-19T05:09:20.982Z,97861.81
2023-03-19T05:11:47.478Z,97864.56
2023-03-19T05:14:13.973Z,97863.69
2023-03-19T05:16:40.444Z,97872.97
2023-03-19T05:19:06.938Z,97866.91
2023-03-19T05:21:33.544Z,97869.03
2023-03-19T05:24:00.223Z,97865.84
2023-03-19T05:26:26.885Z,97866.63
2023-03-19T05:28:53.414Z,97869.66
2023-03-19T05:31:19.962Z,97865.91
2023-03-19T05:33:46.556Z,97872.63
2023-03-19T05:36:13.082Z,97870.34
2023-03-19T05:38:39.554Z,97872.31
2023-03-19T05:41:06.401Z,97868.22
2023-03-19T05:43:33.353Z,97875.97
2023-03-19T05:45:59.829Z,97871.97
2023-03-19T05:48:26.521Z,97882.00
2023-03-19T05:50:53.080Z,97879.22
2023-03-19T05:53:19.934Z,97888.50
2023-03-19T05:55:46.396Z,97880.94
2023-03-19T05:58:12.865Z,97886.91
2023-03-19T06:00:39.330Z,97884.53
2023-03-19T06:03:06.333Z,97887.00
2023-03-19T06:05:32.840Z,97891.47
2023-03-19T06:07:59.414Z,97904.44
2023-03-19T06:10:25.917Z,97890.78
2023-03-19T06:12:52.399Z,97894.50
2023-03-19T06:15:18.868Z,97895.13
2023-03-19T06:17:45.661Z,97886.03
2023-03-19T06:20:12.967Z,97900.94
2023-03-19T06:22:39.600Z,97886.66
2023-03-19T06:25:06.650Z,97897.72
2023-03-19T06:27:33.116Z,97901.91
2023-03-19T06:29:59.619Z,97896.91
2023-03-19T06:32:26.089Z,97905.09
2023-03-19T06:34:52.949Z,97910.38
2023-03-19T06:37:19.415Z,97906.88
2023-03-19T06:39:45.929Z,97918.84
2023-03-19T06:42:13.218Z,97925.25
2023-03-19T06:44:39.738Z,97913.19
2023-03-19T06:47:06.993Z,97918.72
2023-03-19T06:49:33.469Z,97921.34
2023-03-19T06:51:59.925Z,97914.41
2023-03-19T06:54:26.429Z,97913.25
2023-03-19T06:56:52.939Z,97923.91
2023-03-19T06:59:19.525Z,97919.59
2023-03-19T07:01:46.730Z,97928.19
2023-03-19T07:04:13.282Z,97922.75
2023-03-19T07:06:39.805Z,97933.66
2023-03-19T07:09:06.532Z,97935.72
2023-03-19T07:11:35.711Z,97942.97
2023-03-19T07:14:02.569Z,97947.97
2023-03-19T07:16:29.053Z,97952.91
2023-03-19T07:18:56.230Z,97950.81
2023-03-19T07:21:22.919Z,97946.16
2023-03-19T07:23:50.857Z,97951.03
2023-03-19T07:26:17.867Z,97947.53
2023-03-19T07:28:44.388Z,97957.56
2023-03-19T07:31:10.914Z,97969.31
2023-03-19T07:33:37.373Z,97955.44
2023-03-19T07:36:04.030Z,97958.50
2023-03-19T07:38:30.517Z,97960.09
2023-03-19T07:41:02.474Z,97954.88
2023-03-19T07:43:29.319Z,97961.56
2023-03-19T07:45:55.889Z,97969.38
2023-03-19T07:48:22.405Z,97964.28
2023-03-19T07:50:51.238Z,97967.94
2023-03-19T07:53:17.711Z,97965.28
2023-03-19T07:55:44.170Z,97950.94
2023-03-19T07:58:11.038Z,97957.78
2023-03-19T08:00:37.509Z,97954.66
2023-03-19T08:03:04.053Z,97950.06
2023-03-19T08:05:30.513Z,97958.75
2023-03-19T08:07:57.126Z,97957.59
2023-03-19T08:10:23.677Z,97955.91
2023-03-19T08:12:50.440Z,97953.41
2023-03-19T08:15:16.934Z,97957.50
2023-03-19T08:17:43.410Z,97956.06
2023-03-19T08:20:11.970Z,97955.59
2023-03-19T08:22:38.633Z,97956.03
2023-03-19T08:25:06.760Z,97960.44
2023-03-19T08:27:35.696Z,97953.09
2023-03-19T08:30:07.183Z,97961.56
2023-03-19T08:32:33.716Z,97971.19
2023-03-19T08:35:00.347Z,97972.97
2023-03-19T08:37:26.988Z,97971.91
2023-03-19T08:39:54.646Z,97968.31
2023-03-19T08:42:25.082Z,97971.53
2023-03-19T08:44:54.661Z,97972.81
2023-03-19T08:47:33.542Z,97978.38
2023-03-19T08:53:07.007Z,97985.50
2023-03-19T08:55:33.710Z,97988.06
2023-03-19T08:58:00.642Z,97988.88
2023-03-19T09:00:31.583Z,97982.91
2023-03-19T09:02:58.119Z,97996.44
2023-03-19T09:05:24.605Z,97989.50
2023-03-19T09:07:51.998Z,97993.16
2023-03-19T09:10:18.497Z,97986.16
2023-03-19T09:12:46.210Z,97986.16
2023-03-19T09:15:14.363Z,97992.50
2023-03-19T09:17:40.993Z,97988.03
2023-03-19T09:20:08.208Z,97994.75
2023-03-19T09:22:34.751Z,97989.50
2023-03-19T09:25:01.327Z,97998.53
2023-03-19T09:27:28.610Z,98000.19
2023-03-19T09:29:55.294Z,97999.13
2023-03-19T09:32:21.853Z,97992.16
2023-03-19T09:34:48.373Z,98003.16
2023-03-19T09:37:14.933Z,97996.31
2023-03-19T09:39:41.446Z,97990.75
2023-03-19T09:42:26.835Z,97996.81
2023-03-19T09:44:53.437Z,98000.91
2023-03-19T09:47:31.294Z,98001.53
2023-03-19T09:50:04.042Z,98002.16
2023-03-19T09:52:51.258Z,98001.88
2023-03-19T09:55:23.984Z,97997.47
2023-03-19T09:57:51.301Z,98009.53
2023-03-19T10:00:31.233Z,98015.53
2023-03-19T10:03:31.806Z,98005.28
2023-03-19T10:06:19.796Z,98016.16
2023-03-19T10:09:04.718Z,98005.91
2023-03-19T10:11:34.693Z,98017.78
2023-03-19T10:14:28.968Z,98017.47
2023-03-19T10:16:55.895Z,98016.25
2023-03-19T10:19:24.559Z,98012.38
2023-03-19T10:21:57.053Z,98024.66
2023-03-19T10:24:31.279Z,98015.53
2023-03-19T10:27:01.963Z,98028.88
2023-03-19T10:29:28.528Z,98018.16
2023-03-19T10:32:09.169Z,98023.16
2023-03-19T10:34:37.640Z,98024.09
2023-03-19T10:37:13.261Z,98027.66
2023-03-19T10:39:40.747Z,98024.44
2023-03-19T10:42:27.595Z,98017.41
2023-03-19T10:44:59.152Z,98019.91
2023-03-19T10:47:26.266Z,98021.00
2023-03-19T10:49:52.804Z,98018.56
2023-03-19T10:52:28.856Z,98023.94
2023-03-19T10:54:56.886Z,98022.59
2023-03-19T10:57:28.750Z,98018.09
2023-03-19T10:59:55.284Z,98012.81
2023-03-19T11:02:30.989Z,98021.53
2023-03-19T11:05:29.301Z,98022.34
2023-03-19T11:08:05.617Z,98014.69
2023-03-19T11:10:33.671Z,98027.00
2023-03-19T11:13:07.523Z,98020.91
2023-03-19T11:15:38.147Z,98031.59
2023-03-19T11:18:15.562Z,98028.22
2023-03-19T11:20:42.294Z,98028.63
2023-03-19T11:23:16.516Z,98035.44
2023-03-19T11:25:53.321Z,98024.22
2023-03-19T11:28:26.290Z,98032.81
2023-03-19T11:31:12.579Z,98025.22
2023-03-19T11:33:59.362Z,98021.41
2023-03-19T11:36:38.066Z,98015.00
2023-03-19T11:39:28.746Z,98031.38
2023-03-19T11:42:29.872Z,98015.44
2023-03-19T11:45:17.616Z,98017.47
2023-03-19T11:48:02.769Z,98001.84
2023-03-19T11:51:14.810Z,98005.41
2023-03-19T11:53:52.972Z,98002.56
2023-03-19T11:56:23.563Z,98009.31
2023-03-19T11:58:53.931Z,98021.72
2023-03-19T12:02:02.578Z,98006.44
2023-03-19T12:04:47.382Z,98005.66
2023-03-19T12:07:22.944Z,98006.03
2023-03-19T12:10:14.137Z,98013.22
2023-03-19T12:12:55.580Z,98008.22
2023-03-19T12:15:48.368Z,98013.13
2023-03-19T12:18:29.960Z,98001.06
2023-03-19T12:21:11.361Z,98011.50
2023-03-19T12:23:59.439Z,98009.53
2023-03-19T12:26:47.808Z,98010.78
2023-03-19T12:29:22.101Z,98009.03
2023-03-19T12:32:10.136Z,97992.59
2023-03-19T12:34:53.889Z,97983.50
2023-03-19T12:37:42.721Z,97988.59
2023-03-19T12:40:37.754Z,97998.13
2023-03-19T12:43:14.784Z,97990.31
2023-03-19T12:45:43.274Z,97978.66
2023-03-19T12:48:16.191Z,98003.00
2023-03-19T12:50:44.308Z,98007.78
2023-03-19T12:53:33.734Z,97985.28
2023-03-19T12:56:02.477Z,97982.09
2023-03-19T12:59:14.326Z,97983.81
2023-03-19T13:01:46.174Z,97975.00
2023-03-19T13:04:26.508Z,97980.56
2023-03-19T13:07:01.531Z,97993.56
2023-03-19T13:09:32.564Z,97991.63
2023-03-19T13:12:20.794Z,97992.28
2023-03-19T13:15:07.275Z,97998.44
2023-03-19T13:17:58.919Z,97994.97
2023-03-19T13:21:03.089Z,97992.84
2023-03-19T13:23:32.205Z,97986.84
2023-03-19T13:25:58.722Z,98005.34
2023-03-19T13:28:29.311Z,97983.06
2023-03-19T13:31:18.721Z,97990.69
2023-03-19T13:34:07.798Z,97989.78
2023-03-19T13:36:40.274Z,97981.28
2023-03-19T13:39:13.508Z,97988.56
2023-03-19T13:41:47.568Z,97988.16
2023-03-19T13:44:33.175Z,97986.22
2023-03-19T13:47:25.769Z,97991.81
2023-03-19T13:50:12.736Z,97987.25
2023-03-19T13:52:39.066Z,97993.88
2023-03-19T13:55:28.534Z,97980.28
2023-03-19T13:58:11.898Z,97960.56
2023-03-19T14:00:41.370Z,97944.88
2023-03-19T14:03:24.890Z,97957.44
2023-03-19T14:05:53.100Z,97970.69
2023-03-19T14:08:23.874Z,97965.47
2023-03-19T14:10:52.555Z,97967.47
2023-03-19T14:13:28.538Z,97980.28
2023-03-19T14:15:55.021Z,97977.44
2023-03-19T14:18:22.138Z,97966.28
2023-03-19T14:21:26.619Z,97979.81
2023-03-19T14:23:55.029Z,97999.47
2023-03-19T14:26:25.426Z,97975.47
2023-03-19T14:29:08.259Z,97977.50
2023-03-19T14:31:43.731Z,97964.56
2023-03-19T14:34:27.356Z,97985.47
2023-03-19T14:37:16.091Z,97995.00
2023-03-19T14:39:43.190Z,97979.81
2023-03-19T14:42:24.477Z,97988.84
2023-03-19T14:45:14.220Z,97981.25
2023-03-19T14:47:55.511Z,97983.03
2023-03-19T14:50:41.842Z,97965.03
2023-03-19T14:53:18.496Z,97973.84
2023-03-19T14:56:32.918Z,97983.47
2023-03-19T14:59:07.630Z,97985.47
2023-03-19T15:05:00.796Z,97986.31
2023-03-19T15:07:40.473Z,97986.66
2023-03-19T15:10:08.307Z,97974.81
2023-03-19T15:12:43.446Z,97983.88
2023-03-19T15:15:47.652Z,97981.38
2023-03-19T15:18:14.237Z,97993.34
2023-03-19T15:20:44.851Z,97992.91
2023-03-19T15:23:25.703Z,97992.84
2023-03-19T15:26:03.194Z,98003.53
2023-03-19T15:28:31.085Z,97991.59
2023-03-19T15:31:09.406Z,98005.88
2023-03-19T15:33:46.418Z,98012.47
2023-03-19T15:36:23.980Z,98021.59
2023-03-19T15:38:59.329Z,98014.50
2023-03-19T15:41:26.234Z,98013.88
2023-03-19T15:43:52.681Z,98011.81
2023-03-19T15:46:23.128Z,98018.13
2023-03-19T15:48:52.601Z,98023.28
2023-03-19T15:51:19.385Z,98022.63
2023-03-19T15:53:45.920Z,98031.34
2023-03-19T15:56:13.764Z,98028.94
2023-03-19T15:58:42.186Z,98019.44
2023-03-19T16:01:09.433Z,98027.22
2023-03-19T16:03:44.278Z,98033.28
2023-03-19T16:06:17.380Z,98037.66
2023-03-19T16:08:54.090Z,98051.28
2023-03-19T16:11:29.752Z,98050.53
2023-03-19T16:14:09.860Z,98048.75
2023-03-19T16:16:38.620Z,98050.78
2023-03-19T16:19:05.085Z,98052.94
2023-03-19T16:21:38.989Z,98054.06
2023-03-19T16:24:08.315Z,98065.88
2023-03-19T16:26:41.869Z,98067.50
2023-03-19T16:29:35.717Z,98068.09
2023-03-19T16:32:22.673Z,98054.03
2023-03-19T16:35:06.012Z,98063.84
2023-03-19T16:37:38.492Z,98065.72
2023-03-19T16:40:13.832Z,98069.22
2023-03-19T16:42:50.835Z,98070.38
2023-03-19T16:45:17.439Z,98077.13
2023-03-19T16:47:44.622Z,98074.72
2023-03-19T16:50:11.228Z,98078.59
2023-03-19T16:52:38.255Z,98075.06
2023-03-19T16:55:05.595Z,98078.31
2023-03-19T16:57:32.060Z,98074.66
2023-03-19T16:59:58.561Z,98081.66
2023-03-19T17:02:25.202Z,98093.19
2023-03-19T17:04:51.711Z,98093.19
2023-03-19T17:07:18.212Z,98095.41
2023-03-19T17:09:44.664Z,98091.81
2023-03-19T17:12:14.560Z,98094.56
2023-03-19T17:14:41.162Z,98093.81
2023-03-19T17:17:20.126Z,98086.66
2023-03-19T17:19:46.654Z,98097.38
2023-03-19T17:22:14.357Z,98105.69
2023-03-19T17:24:41.005Z,98111.66
2023-03-19T17:27:08.956Z,98112.00
2023-03-19T17:29:35.451Z,98118.81
2023-03-19T17:32:02.003Z,98119.03
2023-03-19T17:34:31.754Z,98113.94
2023-03-19T17:37:02.252Z,98124.47
2023-03-19T17:39:32.051Z,98126.84
2023-03-19T17:41:58.937Z,98130.44
2023-03-19T17:44:25.801Z,98131.69
2023-03-19T17:46:53.281Z,98135.44
2023-03-19T17:49:28.931Z,98137.78
2023-03-19T17:51:55.839Z,98139.69
2023-03-19T17:54:22.300Z,98147.38
2023-03-19T17:56:48.828Z,98141.69
2023-03-19T17:59:15.327Z,98152.41
2023-03-19T18:01:43.492Z,98150.06
2023-03-19T18:04:13.195Z,98152.47
2023-03-19T18:06:42.635Z,98152.03
2023-03-19T18:09:20.902Z,98153.28
2023-03-19T18:11:47.380Z,98146.53
2023-03-19T18:14:13.906Z,98149.78
2023-03-19T18:16:40.469Z,98154.09
2023-03-19T18:19:19.213Z,98159.97
2023-03-19T18:21:45.690Z,98162.69
2023-03-19T18:24:12.552Z,98163.63
2023-03-19T18:26:39.023Z,98162.72
2023-03-19T18:29:05.589Z,98164.06
2023-03-19T18:31:32.113Z,98166.69
2023-03-19T18:34:00.881Z,98176.63
2023-03-19T18:36:28.823Z,98175.09
2023-03-19T18:38:55.416Z,98167.69
2023-03-19T18:41:22.529Z,98171.34
2023-03-19T18:43:48.988Z,98168.13
2023-03-19T18:46:23.611Z,98166.34
2023-03-19T18:48:50.275Z,98168.31
2023-03-19T18:51:16.746Z,98165.34
2023-03-19T18:53:43.379Z,98165.47
2023-03-19T18:56:18.153Z,98177.81
2023-03-19T18:58:44.653Z,98184.84
2023-03-19T19:01:14.743Z,98179.00
2023-03-19T19:03:41.243Z,98175.34
2023-03-19T19:06:08.520Z,98182.94
2023-03-19T19:08:34.992Z,98185.91
2023-03-19T19:11:03.548Z,98191.19
2023-03-19T19:13:32.067Z,98199.06
2023-03-19T19:15:58.641Z,98199.06
2023-03-19T19:18:26.348Z,98202.75
2023-03-19T19:20:53.204Z,98209.53
2023-03-19T19:23:20.627Z,98203.56
2023-03-19T19:25:48.037Z,98211.69
2023-03-19T19:28:15.508Z,98205.69
2023-03-19T19:30:42.132Z,98211.94
2023-03-19T19:33:28.615Z,98212.16
2023-03-19T19:35:55.478Z,98212.25
2023-03-19T19:38:21.979Z,98222.09
2023-03-19T19:40:49.782Z,98228.50
2023-03-19T19:43:18.608Z,98227.06
2023-03-19T19:45:45.692Z,98231.56
2023-03-19T19:48:20.526Z,98234.16
2023-03-19T19:50:47.444Z,98241.97
2023-03-19T19:53:14.058Z,98244.34
2023-03-19T19:55:40.683Z,98245.78
2023-03-19T19:58:08.715Z,98250.72
2023-03-19T20:00:35.264Z,98246.28
2023-03-19T20:03:01.803Z,98250.78
2023-03-19T20:05:32.789Z,98254.16
2023-03-19T20:08:01.836Z,98259.88
2023-03-19T20:10:29.709Z,98254.56
2023-03-19T20:13:00.839Z,98266.38
2023-03-19T20:15:29.443Z,98254.50
2023-03-19T20:17:56.000Z,98265.81
2023-03-19T20:20:24.403Z,98266.16
2023-03-19T20:22:50.884Z,98267.53
2023-03-19T20:25:18.628Z,98266.53
2023-03-19T20:27:45.432Z,98271.41
2023-03-19T20:30:32.314Z,98265.59
2023-03-19T20:32:59.588Z,98268.69
2023-03-19T20:35:27.683Z,98266.38
2023-03-19T20:37:54.970Z,98275.47
2023-03-19T20:40:22.193Z,98272.25
2023-03-19T20:42:49.930Z,98271.47
2023-03-19T20:45:18.679Z,98269.72
2023-03-19T20:47:45.238Z,98278.19
2023-03-19T20:50:20.061Z,98271.94
2023-03-19T20:52:46.723Z,98280.38
2023-03-19T20:55:16.670Z,98285.13
2023-03-19T20:57:43.285Z,98284.50
2023-03-19T21:00:16.939Z,98281.50
2023-03-19T21:02:43.454Z,98287.78
2023-03-19T21:05:14.020Z,98289.91
2023-03-19T21:07:40.776Z,98300.53
2023-03-19T21:10:31.398Z,98301.53
2023-03-19T21:12:58.853Z,98295.97
2023-03-19T21:15:25.674Z,98305.72
2023-03-19T21:17:53.245Z,98311.63
2023-03-19T21:20:30.164Z,98311.38
2023-03-19T21:23:05.504Z,98307.22
2023-03-19T21:25:32.016Z,98310.34
2023-03-19T21:28:00.970Z,98320.53
2023-03-19T21:30:27.439Z,98316.38
2023-03-19T21:32:54.029Z,98321.34
2023-03-19T21:35:22.092Z,98326.44
2023-03-19T21:37:48.628Z,98322.28
2023-03-19T21:40:22.843Z,98326.91
2023-03-19T21:42:51.150Z,98325.97
2023-03-19T21:45:27.643Z,98325.03
2023-03-19T21:48:28.717Z,98332.66
2023-03-19T21:50:55.340Z,98328.28
2023-03-19T21:53:22.420Z,98332.09
2023-03-19T21:55:50.106Z,98328.50
2023-03-19T21:58:17.892Z,98323.44
2023-03-19T22:00:44.655Z,98335.91
2023-03-19T22:03:18.543Z,98328.41
2023-03-19T22:05:45.613Z,98330.84
2023-03-19T22:08:14.847Z,98331.50
2023-03-19T22:10:42.557Z,98333.00
2023-03-19T22:13:26.005Z,98325.16
2023-03-19T22:15:53.333Z,98333.59
2023-03-19T22:18:20.301Z,98331.88
2023-03-19T22:20:47.031Z,98336.84
2023-03-19T22:23:13.779Z,98330.03
2023-03-19T22:25:42.436Z,98336.63
2023-03-19T22:28:31.267Z,98335.19
2023-03-19T22:30:57.745Z,98332.31
2023-03-19T22:33:25.619Z,98329.44
2023-03-19T22:35:52.150Z,98327.03
2023-03-19T22:38:19.455Z,98326.22
2023-03-19T22:40:47.549Z,98330.94
2023-03-19T22:43:26.084Z,98332.31
2023-03-19T22:46:09.319Z,98333.94
2023-03-19T22:48:35.884Z,98333.38
2023-03-19T22:51:02.455Z,98333.84
2023-03-19T22:53:30.612Z,98325.16
2023-03-19T22:55:57.692Z,98331.50
2023-03-19T22:58:24.380Z,98338.34
2023-03-19T23:00:51.037Z,98328.50
2023-03-19T23:03:24.755Z,98330.91
2023-03-19T23:05:53.239Z,98325.72
2023-03-19T23:08:19.796Z,98329.19
2023-03-19T23:10:47.299Z,98314.50
2023-03-19T23:13:14.727Z,98325.84
2023-03-19T23:15:41.556Z,98320.28
2023-03-19T23:18:19.140Z,98329.75
2023-03-19T23:20:46.483Z,98344.00
2023-03-19T23:23:14.268Z,98345.59
2023-03-19T23:25:41.776Z,98353.09
2023-03-19T23:28:19.451Z,98353.34
2023-03-19T23:30:46.413Z,98348.63
2023-03-19T23:33:12.976Z,98364.56
2023-03-19T23:35:40.261Z,98364.31
2023-03-19T23:38:07.016Z,98366.75
2023-03-19T23:40:33.495Z,98369.41
2023-03-19T23:43:01.257Z,98374.34
2023-03-19T23:45:37.740Z,98382.13
2023-03-19T23:48:06.590Z,98386.25
2023-03-19T23:50:33.559Z,98392.59
2023-03-19T23:53:00.135Z,98391.22
2023-03-19T23:55:26.650Z,98401.81
2023-03-19T23:57:53.303Z,98410.47
